Time;durP1;ratioP1;P1;durP2;ratioP2;P2;SDS_P1;SDS_P2;PMS_P1;PMS_P2;Temp;Humidity;BMP_temperature;BMP_pressure;BME280_temperature;BME280_humidity;BME280_pressure;Samples;Min_cycle;Max_cycle;Signal;HPM_P1;HPM_P2
2022/12/02 00:01:55;;;;;;;95.35;39.80;;;7.70;99.90;;;;;;5008413;28;20049;-81
2022/12/02 00:04:24;;;;;;;88.80;37.55;;;7.70;99.90;;;;;;5008854;28;20052;-81
2022/12/02 00:06:51;;;;;;;84.53;36.50;;;7.70;99.90;;;;;;5006992;28;20260;-81
2022/12/02 00:09:24;;;;;;;91.60;35.20;;;7.70;99.90;;;;;;5008122;28;20125;-81
2022/12/02 00:11:51;;;;;;;83.32;34.72;;;7.70;99.90;;;;;;5007446;28;20058;-81
2022/12/02 00:14:22;;;;;;;83.38;34.22;;;7.70;99.90;;;;;;5007062;28;20538;-81
2022/12/02 00:16:49;;;;;;;82.68;33.70;;;7.70;99.90;;;;;;5009297;28;20078;-81
2022/12/02 00:19:16;;;;;;;78.85;34.00;;;7.70;99.90;;;;;;5007964;28;20136;-81
2022/12/02 00:21:43;;;;;;;74.35;33.60;;;7.70;99.90;;;;;;5007359;28;20038;-81
2022/12/02 00:24:10;;;;;;;76.93;31.58;;;7.70;99.90;;;;;;5008431;28;20048;-81
2022/12/02 00:26:38;;;;;;;78.47;33.40;;;7.70;99.90;;;;;;5005949;28;20729;-81
2022/12/02 00:29:05;;;;;;;79.40;33.72;;;7.70;99.90;;;;;;4988418;28;20124;-81
2022/12/02 00:31:32;;;;;;;83.82;35.95;;;7.70;99.90;;;;;;5008345;28;20046;-81
2022/12/02 00:33:59;;;;;;;82.45;35.88;;;7.70;99.90;;;;;;4994990;28;20088;-81
2022/12/02 00:36:26;;;;;;;82.85;34.97;;;7.60;99.90;;;;;;5012372;28;20129;-81
2022/12/02 00:38:53;;;;;;;77.32;33.72;;;7.50;99.90;;;;;;5010847;28;20049;-81
2022/12/02 00:41:20;;;;;;;67.10;29.92;;;7.50;99.90;;;;;;4993326;28;20050;-81
2022/12/02 00:46:34;;;;;;;66.75;29.83;;;7.50;99.90;;;;;;5015602;28;20418;-81
2022/12/02 00:49:04;;;;;;;65.05;28.27;;;7.50;99.90;;;;;;4994677;28;20056;-81
2022/12/02 00:51:31;;;;;;;60.17;27.90;;;7.50;99.90;;;;;;4993937;28;20053;-81
2022/12/02 00:53:58;;;;;;;53.15;26.00;;;7.50;99.90;;;;;;4994002;28;20046;-81
2022/12/02 00:56:25;;;;;;;50.38;23.67;;;7.50;99.90;;;;;;4994733;28;20562;-81
2022/12/02 00:58:54;;;;;;;53.13;24.85;;;7.40;99.90;;;;;;4989804;28;20046;-81
2022/12/02 01:01:21;;;;;;;57.38;25.42;;;7.50;99.90;;;;;;5001531;28;20136;-81
2022/12/02 01:03:48;;;;;;;54.17;24.67;;;7.50;99.90;;;;;;5011922;28;20046;-81
2022/12/02 01:06:15;;;;;;;56.00;24.20;;;7.50;99.90;;;;;;5011133;28;20064;-81
2022/12/02 01:08:42;;;;;;;52.55;24.23;;;7.50;99.90;;;;;;4994286;28;20054;-81
2022/12/02 01:11:09;;;;;;;46.03;22.27;;;7.50;99.90;;;;;;5011292;28;20042;-81
2022/12/02 01:13:36;;;;;;;48.05;22.75;;;7.50;99.90;;;;;;4999100;28;20045;-81
2022/12/02 01:16:05;;;;;;;46.22;21.98;;;7.60;99.90;;;;;;4995406;28;20046;-81
2022/12/02 01:18:32;;;;;;;43.40;21.27;;;7.60;99.90;;;;;;5011704;28;20119;-81
2022/12/02 01:20:59;;;;;;;49.35;22.10;;;7.60;99.90;;;;;;5010977;28;20900;-81
2022/12/02 01:23:26;;;;;;;49.17;22.55;;;7.60;99.90;;;;;;4993941;28;20078;-81
2022/12/02 01:25:53;;;;;;;51.13;23.75;;;7.60;99.90;;;;;;5008770;28;20050;-81
2022/12/02 01:28:20;;;;;;;58.45;25.98;;;7.60;99.90;;;;;;5011713;28;20124;-81
2022/12/02 01:30:47;;;;;;;63.47;28.13;;;7.60;99.90;;;;;;5004995;28;20045;-81
2022/12/02 01:33:15;;;;;;;65.75;28.50;;;7.70;99.90;;;;;;5016309;28;20413;-81
2022/12/02 01:35:42;;;;;;;65.05;28.40;;;7.60;99.90;;;;;;5016719;28;20044;-81
2022/12/02 01:38:09;;;;;;;69.38;30.40;;;7.60;99.90;;;;;;5010532;28;20045;-81
2022/12/02 01:40:36;;;;;;;72.05;30.85;;;7.60;99.90;;;;;;5009556;28;20037;-81
2022/12/02 01:43:03;;;;;;;71.57;30.17;;;7.60;99.90;;;;;;4993270;28;20041;-81
2022/12/02 01:45:31;;;;;;;69.35;28.20;;;7.60;99.90;;;;;;5008123;28;20073;-81
2022/12/02 01:47:59;;;;;;;72.95;30.30;;;7.60;99.90;;;;;;5021535;28;20572;-81
2022/12/02 01:50:28;;;;;;;67.78;29.48;;;7.50;99.90;;;;;;5020084;28;20152;-81
2022/12/02 01:52:55;;;;;;;65.47;27.98;;;7.50;99.90;;;;;;4993157;28;20057;-81
2022/12/02 01:55:24;;;;;;;65.80;29.05;;;7.50;99.90;;;;;;5009967;28;20047;-81
2022/12/02 01:57:51;;;;;;;66.55;27.48;;;7.50;99.90;;;;;;5011275;28;20124;-81
2022/12/02 02:00:19;;;;;;;69.88;29.17;;;7.50;99.90;;;;;;4996635;28;20042;-81
2022/12/02 02:02:46;;;;;;;65.05;27.70;;;7.30;99.90;;;;;;5008523;28;20045;-81
2022/12/02 02:05:16;;;;;;;69.38;28.83;;;7.40;99.90;;;;;;5020027;23;20269;-92
2022/12/02 02:07:49;;;;;;;68.68;28.88;;;7.40;99.90;;;;;;4972208;28;20181;-91
2022/12/02 02:10:16;;;;;;;70.93;30.13;;;7.40;99.90;;;;;;4974246;28;20506;-90
2022/12/02 02:12:45;;;;;;;69.65;29.02;;;7.30;99.90;;;;;;4997998;28;20042;-92
2022/12/02 02:15:13;;;;;;;69.28;28.80;;;7.20;99.90;;;;;;4983436;28;20051;-92
2022/12/02 02:17:40;;;;;;;68.05;27.98;;;7.20;99.90;;;;;;4992429;28;20039;-93
2022/12/02 02:20:11;;;;;;;61.70;26.48;;;7.30;99.90;;;;;;4981047;28;20093;-92
2022/12/02 02:22:45;;;;;;;69.43;29.10;;;7.20;99.90;;;;;;4994119;28;20031;-92
2022/12/02 02:25:16;;;;;;;62.08;26.73;;;7.30;99.90;;;;;;4981828;28;20051;-91
2022/12/02 02:27:48;;;;;;;67.70;26.73;;;7.30;99.90;;;;;;4968362;28;20166;-91
2022/12/02 02:30:15;;;;;;;66.53;28.48;;;7.40;99.90;;;;;;4980365;28;20039;-91
2022/12/02 02:32:42;;;;;;;63.67;27.90;;;7.40;99.90;;;;;;4970029;28;20113;-92
2022/12/02 02:35:10;;;;;;;65.28;27.83;;;7.40;99.90;;;;;;4961102;28;20050;-90
2022/12/02 02:37:37;;;;;;;71.10;28.27;;;7.40;99.90;;;;;;4976334;28;20046;-91
2022/12/02 02:40:06;;;;;;;68.82;27.30;;;7.30;99.90;;;;;;4965041;28;20070;-92
2022/12/02 02:42:35;;;;;;;68.35;28.30;;;7.40;99.90;;;;;;4935409;29;20058;-91
2022/12/02 02:45:03;;;;;;;67.43;28.13;;;7.30;99.90;;;;;;4981389;28;20377;-92
2022/12/02 02:47:30;;;;;;;68.75;28.10;;;7.40;99.90;;;;;;4972924;28;20111;-92
2022/12/02 02:49:58;;;;;;;67.53;28.50;;;7.40;99.90;;;;;;4962500;28;20082;-91
2022/12/02 02:52:25;;;;;;;65.57;28.40;;;7.40;99.90;;;;;;4976128;28;20121;-91
2022/12/02 02:54:52;;;;;;;72.43;29.40;;;7.40;99.90;;;;;;4955140;28;20042;-92
2022/12/02 02:57:20;;;;;;;72.13;27.20;;;7.30;99.90;;;;;;4984836;28;20098;-91
2022/12/02 02:59:50;;;;;;;66.07;29.00;;;7.40;99.90;;;;;;4956091;28;20045;-91
2022/12/02 03:02:17;;;;;;;75.55;30.25;;;7.40;99.90;;;;;;4959330;28;20046;-92
2022/12/02 03:04:44;;;;;;;72.50;30.58;;;7.40;99.90;;;;;;4982925;28;20042;-92
2022/12/02 03:07:12;;;;;;;75.82;30.15;;;7.40;99.90;;;;;;4955653;28;20133;-92
2022/12/02 03:09:40;;;;;;;68.35;29.10;;;7.40;99.90;;;;;;4953480;28;20149;-92
2022/12/02 03:12:08;;;;;;;63.95;28.13;;;7.40;99.90;;;;;;4953484;28;20066;-91
2022/12/02 03:14:35;;;;;;;73.93;29.23;;;7.40;99.90;;;;;;4986366;28;20069;-91
2022/12/02 03:17:04;;;;;;;70.78;29.23;;;7.40;99.90;;;;;;4983451;28;20058;-93
2022/12/02 03:19:33;;;;;;;73.97;29.45;;;7.40;99.90;;;;;;4979585;28;20058;-91
2022/12/02 03:22:00;;;;;;;68.65;29.15;;;7.40;99.90;;;;;;4976309;28;20506;-91
2022/12/02 03:24:27;;;;;;;63.95;27.90;;;7.50;99.90;;;;;;4972819;28;20055;-92
2022/12/02 03:26:56;;;;;;;68.47;29.20;;;7.50;99.90;;;;;;4966347;28;20397;-91
2022/12/02 03:29:24;;;;;;;77.15;29.27;;;7.50;99.90;;;;;;4979726;28;20046;-92
2022/12/02 03:31:51;;;;;;;74.43;28.55;;;7.50;99.90;;;;;;4986631;28;20046;-91
2022/12/02 03:34:19;;;;;;;71.22;29.02;;;7.50;99.90;;;;;;4970815;28;20085;-92
2022/12/02 03:36:46;;;;;;;71.40;29.35;;;7.60;99.90;;;;;;4972013;28;20046;-91
2022/12/02 03:39:13;;;;;;;80.78;30.98;;;7.50;99.90;;;;;;4953643;28;20049;-91
2022/12/02 03:41:41;;;;;;;76.75;28.63;;;7.50;99.90;;;;;;4987820;28;20121;-91
2022/12/02 03:44:08;;;;;;;71.43;28.52;;;7.30;99.90;;;;;;4977008;28;20042;-92
2022/12/02 03:46:35;;;;;;;72.15;29.20;;;7.30;99.90;;;;;;4981260;28;20046;-91
2022/12/02 03:49:02;;;;;;;73.57;28.85;;;7.30;99.90;;;;;;4981408;28;20509;-91
2022/12/02 03:51:31;;;;;;;76.60;29.15;;;7.40;99.90;;;;;;4952219;28;20046;-92
2022/12/02 03:54:00;;;;;;;67.35;28.08;;;7.40;99.90;;;;;;4972364;28;20051;-90
2022/12/02 03:56:27;;;;;;;68.78;28.73;;;7.40;99.90;;;;;;4987647;28;20046;-91
2022/12/02 03:58:54;;;;;;;73.90;28.08;;;7.40;99.90;;;;;;4969119;28;20077;-91
2022/12/02 04:01:22;;;;;;;80.20;29.92;;;7.40;99.90;;;;;;4963824;28;20054;-91
2022/12/02 04:03:49;;;;;;;75.10;30.25;;;7.40;99.90;;;;;;4978658;28;20061;-91
2022/12/02 04:06:16;;;;;;;64.32;27.48;;;7.30;99.90;;;;;;4989560;28;20101;-91
2022/12/02 04:08:45;;;;;;;75.45;29.40;;;7.40;99.90;;;;;;4990103;28;20129;-90
2022/12/02 04:11:12;;;;;;;68.82;27.80;;;7.40;99.90;;;;;;4989289;28;20073;-92
2022/12/02 04:13:39;;;;;;;81.10;29.38;;;7.40;99.90;;;;;;4958898;28;20042;-91
2022/12/02 04:16:06;;;;;;;83.40;30.33;;;7.40;99.90;;;;;;4962074;28;20459;-91
2022/12/02 04:18:33;;;;;;;74.03;29.23;;;7.30;99.90;;;;;;4969960;28;20047;-91
2022/12/02 04:21:00;;;;;;;77.15;30.13;;;7.30;99.90;;;;;;4988837;28;20054;-91
2022/12/02 04:23:27;;;;;;;74.70;28.95;;;7.30;99.90;;;;;;4958516;28;20128;-92
2022/12/02 04:25:56;;;;;;;82.35;30.83;;;7.30;99.90;;;;;;4973216;28;20111;-92
2022/12/02 04:28:23;;;;;;;73.28;29.95;;;7.30;99.90;;;;;;4974824;28;20491;-93
2022/12/02 04:30:50;;;;;;;80.25;31.15;;;7.40;99.90;;;;;;4964818;28;20514;-90
2022/12/02 04:33:17;;;;;;;77.72;29.88;;;7.30;99.90;;;;;;4973654;28;20492;-91
2022/12/02 04:35:44;;;;;;;80.05;30.48;;;7.30;99.90;;;;;;4984161;28;20410;-92
2022/12/02 04:38:11;;;;;;;85.20;30.58;;;7.20;99.90;;;;;;4980451;28;20110;-91
2022/12/02 04:40:43;;;;;;;80.60;31.15;;;7.20;99.90;;;;;;4970108;28;20401;-91
2022/12/02 04:43:15;;;;;;;83.10;31.30;;;7.20;99.90;;;;;;4967199;28;20036;-90
2022/12/02 04:45:42;;;;;;;80.05;29.48;;;7.10;99.90;;;;;;4974172;28;20046;-90
2022/12/02 04:48:09;;;;;;;80.13;29.98;;;7.20;99.90;;;;;;4979007;28;20511;-91
2022/12/02 04:50:36;;;;;;;74.93;28.42;;;7.10;99.90;;;;;;4966922;28;20074;-89
2022/12/02 04:53:03;;;;;;;76.47;29.52;;;7.20;99.90;;;;;;4983609;28;20545;-92
2022/12/02 04:55:30;;;;;;;77.80;29.02;;;7.20;99.90;;;;;;4971710;28;20522;-92
2022/12/02 04:57:57;;;;;;;77.10;29.00;;;7.20;99.90;;;;;;4959407;28;20105;-91
2022/12/02 05:00:26;;;;;;;79.50;29.52;;;7.20;99.90;;;;;;4965672;28;20049;-91
2022/12/02 05:02:55;;;;;;;79.47;29.70;;;7.10;99.90;;;;;;4958433;28;20047;-93
2022/12/02 05:05:23;;;;;;;83.45;31.73;;;7.10;99.90;;;;;;4966286;28;20547;-87
2022/12/02 05:07:50;;;;;;;72.03;27.70;;;7.10;99.90;;;;;;4976245;28;20436;-88
2022/12/02 05:10:17;;;;;;;81.50;29.38;;;7.10;99.90;;;;;;4988499;28;20042;-82
2022/12/02 05:12:44;;;;;;;77.78;29.90;;;7.20;99.90;;;;;;4982397;28;20054;-86
2022/12/02 05:15:11;;;;;;;69.85;27.77;;;7.20;99.90;;;;;;4989005;28;20050;-85
2022/12/02 05:17:39;;;;;;;83.05;30.17;;;7.20;99.90;;;;;;4989119;28;20046;-86
2022/12/02 05:20:07;;;;;;;80.18;31.35;;;7.20;99.90;;;;;;4957822;28;20630;-85
2022/12/02 05:22:34;;;;;;;79.75;29.95;;;7.20;99.90;;;;;;4984042;28;20089;-83
2022/12/02 05:25:01;;;;;;;77.22;29.25;;;7.10;99.90;;;;;;4970531;28;20038;-83
2022/12/02 05:27:28;;;;;;;83.10;30.92;;;7.10;99.90;;;;;;4981679;28;20047;-83
2022/12/02 05:29:55;;;;;;;73.57;28.52;;;7.20;99.90;;;;;;4990750;28;20463;-85
2022/12/02 05:32:22;;;;;;;82.78;31.52;;;7.20;99.90;;;;;;4989078;28;20081;-84
2022/12/02 05:34:50;;;;;;;77.57;29.80;;;7.10;99.90;;;;;;4960552;28;20133;-85
2022/12/02 05:37:17;;;;;;;79.35;29.45;;;7.10;99.90;;;;;;4972911;28;20058;-85
2022/12/02 05:39:44;;;;;;;74.68;28.38;;;7.10;99.90;;;;;;4958553;28;20161;-83
2022/12/02 05:42:13;;;;;;;76.97;27.27;;;7.10;99.90;;;;;;4982442;28;20038;-84
2022/12/02 05:44:42;;;;;;;70.10;27.00;;;7.00;99.90;;;;;;4980027;28;20038;-83
2022/12/02 05:47:11;;;;;;;65.80;24.77;;;7.00;99.90;;;;;;4972798;28;20050;-83
2022/12/02 05:49:38;;;;;;;76.15;27.38;;;7.10;99.90;;;;;;4976854;28;20038;-83
2022/12/02 05:52:21;;;;;;;72.40;29.17;;;7.10;99.90;;;;;;4991816;28;20039;-85
2022/12/02 05:54:49;;;;;;;65.88;26.75;;;7.00;99.90;;;;;;4973734;28;20065;-83
2022/12/02 05:57:17;;;;;;;65.40;26.17;;;7.10;99.90;;;;;;4975246;28;20130;-85
2022/12/02 05:59:43;;;;;;;70.72;26.85;;;7.00;99.90;;;;;;4967234;28;20046;-85
2022/12/02 06:02:22;;;;;;;75.40;28.42;;;7.00;99.90;;;;;;4967535;28;20119;-89
2022/12/02 06:04:49;;;;;;;80.32;27.70;;;7.00;99.90;;;;;;4972706;28;20093;-88
2022/12/02 06:07:18;;;;;;;72.50;27.25;;;7.00;99.90;;;;;;4972716;28;20105;-86
2022/12/02 06:09:45;;;;;;;72.50;27.30;;;7.00;99.90;;;;;;4974351;28;20117;-86
2022/12/02 06:12:15;;;;;;;75.10;27.83;;;7.00;99.90;;;;;;4986412;28;20068;-87
2022/12/02 06:14:48;;;;;;;72.53;28.65;;;7.00;99.90;;;;;;4968427;28;20141;-87
2022/12/02 06:17:17;;;;;;;76.15;28.75;;;6.90;99.90;;;;;;4975907;28;20093;-88
2022/12/02 06:19:45;;;;;;;79.00;30.65;;;6.90;99.90;;;;;;4976923;28;20180;-86
2022/12/02 06:22:23;;;;;;;89.80;31.25;;;6.90;99.90;;;;;;4978816;28;20047;-92
2022/12/02 06:24:53;;;;;;;90.43;31.67;;;6.90;99.90;;;;;;4992244;28;20078;-92
2022/12/02 06:27:21;;;;;;;95.25;34.65;;;6.90;99.90;;;;;;4976087;28;20104;-89
2022/12/02 06:29:51;;;;;;;104.38;33.85;;;6.90;99.90;;;;;;5005780;28;20073;-88
2022/12/02 06:32:21;;;;;;;103.22;34.17;;;6.90;99.90;;;;;;5011294;28;20039;-90
2022/12/02 06:34:50;;;;;;;100.82;34.40;;;7.00;99.90;;;;;;4997775;28;20043;-90
2022/12/02 06:37:20;;;;;;;95.00;33.20;;;7.00;99.90;;;;;;4993337;28;20068;-90
2022/12/02 06:39:50;;;;;;;109.20;36.77;;;7.00;99.90;;;;;;4986647;28;20073;-90
2022/12/02 06:42:22;;;;;;;118.10;36.47;;;7.00;99.90;;;;;;4976991;28;20306;-91
2022/12/02 06:45:04;;;;;;;102.72;32.47;;;6.90;99.90;;;;;;4972521;28;20058;-90
2022/12/02 06:48:06;;;;;;;107.93;34.42;;;6.90;99.90;;;;;;4979210;28;20042;-90
2022/12/02 06:50:38;;;;;;;102.68;33.40;;;6.80;99.90;;;;;;4972010;28;20062;-90
2022/12/02 06:53:20;;;;;;;128.68;39.25;;;6.80;99.90;;;;;;4972244;28;20118;-89
2022/12/02 06:55:49;;;;;;;127.85;38.10;;;6.80;99.90;;;;;;4971223;28;20049;-89
2022/12/02 06:58:34;;;;;;;128.38;38.72;;;6.70;99.90;;;;;;4956167;28;20046;-91
2022/12/02 07:01:12;;;;;;;122.68;39.08;;;6.60;99.90;;;;;;4945027;28;20595;-91
2022/12/02 07:03:46;;;;;;;113.50;36.03;;;6.70;99.90;;;;;;4980399;28;20121;-91
2022/12/02 07:06:15;;;;;;;102.55;34.30;;;6.70;99.90;;;;;;4966144;28;20060;-91
2022/12/02 07:08:43;;;;;;;112.53;36.53;;;6.80;99.90;;;;;;4953101;28;20081;-90
2022/12/02 07:11:21;;;;;;;127.55;38.42;;;6.80;99.90;;;;;;4971523;28;20487;-90
2022/12/02 07:13:50;;;;;;;106.15;35.50;;;6.80;99.90;;;;;;4967531;28;20042;-89
2022/12/02 07:16:33;;;;;;;119.57;37.05;;;6.80;99.90;;;;;;4958004;28;20053;-88
2022/12/02 07:19:01;;;;;;;123.25;40.80;;;6.90;99.90;;;;;;4954257;28;20054;-90
2022/12/02 07:21:28;;;;;;;103.43;37.10;;;6.80;99.90;;;;;;4982878;28;20621;-89
2022/12/02 07:23:55;;;;;;;108.22;37.13;;;6.80;99.90;;;;;;4970675;28;20046;-90
2022/12/02 07:26:24;;;;;;;108.63;36.50;;;6.80;99.90;;;;;;4971772;28;20054;-90
2022/12/02 07:28:54;;;;;;;126.10;38.63;;;6.80;99.90;;;;;;4974005;28;20070;-90
2022/12/02 07:31:23;;;;;;;108.63;37.05;;;6.80;99.90;;;;;;4990212;28;20050;-88
2022/12/02 07:33:50;;;;;;;124.00;39.17;;;6.90;99.90;;;;;;4977504;28;20432;-90
2022/12/02 07:36:18;;;;;;;111.60;40.35;;;6.70;99.90;;;;;;4962248;28;20062;-91
2022/12/02 07:38:45;;;;;;;112.70;39.35;;;6.70;99.90;;;;;;4975657;28;20074;-89
2022/12/02 07:41:12;;;;;;;103.75;36.45;;;6.50;99.90;;;;;;4951939;28;20098;-88
2022/12/02 07:43:41;;;;;;;103.38;36.58;;;6.60;99.90;;;;;;4972529;28;20051;-89
2022/12/02 07:46:08;;;;;;;108.78;38.85;;;6.60;99.90;;;;;;4981702;28;20060;-89
2022/12/02 07:48:35;;;;;;;103.05;36.35;;;6.60;99.90;;;;;;4976445;28;20062;-89
2022/12/02 07:51:02;;;;;;;96.97;34.45;;;6.70;99.90;;;;;;4982832;28;20487;-90
2022/12/02 07:53:29;;;;;;;100.18;36.33;;;6.70;99.90;;;;;;4984959;28;20472;-90
2022/12/02 07:55:57;;;;;;;96.70;36.08;;;6.70;99.90;;;;;;4969234;28;20043;-90
2022/12/02 07:58:24;;;;;;;95.47;36.35;;;6.70;99.90;;;;;;4981439;28;20038;-91
2022/12/02 08:00:52;;;;;;;103.45;36.42;;;6.70;99.90;;;;;;4978351;28;20034;-90
2022/12/02 08:03:19;;;;;;;100.63;38.08;;;6.60;99.90;;;;;;4985405;28;20093;-90
2022/12/02 08:05:46;;;;;;;96.18;35.42;;;6.70;99.90;;;;;;4976563;23;20054;-86
2022/12/02 08:08:13;;;;;;;93.40;35.45;;;6.70;99.90;;;;;;5003082;28;20049;-87
2022/12/02 08:10:40;;;;;;;87.18;34.58;;;6.70;99.90;;;;;;5007581;28;20449;-86
2022/12/02 08:13:07;;;;;;;87.63;34.35;;;6.90;99.90;;;;;;5008842;28;20053;-87
2022/12/02 08:15:34;;;;;;;90.72;33.70;;;6.80;99.90;;;;;;4989010;28;20416;-86
2022/12/02 08:18:02;;;;;;;97.47;35.30;;;6.80;99.90;;;;;;5005945;28;20121;-87
2022/12/02 08:20:29;;;;;;;92.93;34.00;;;6.80;99.90;;;;;;5008994;28;20125;-86
2022/12/02 08:22:56;;;;;;;94.03;33.88;;;6.80;99.90;;;;;;5003124;28;20108;-85
2022/12/02 08:25:23;;;;;;;82.57;33.10;;;6.80;99.90;;;;;;5006557;28;20034;-86
2022/12/02 08:27:50;;;;;;;90.53;32.17;;;6.80;99.90;;;;;;5008225;28;20042;-85
2022/12/02 08:30:20;;;;;;;85.07;33.63;;;6.90;99.90;;;;;;4990904;28;20046;-87
2022/12/02 08:32:47;;;;;;;80.85;32.47;;;6.80;99.90;;;;;;5009019;28;20141;-89
2022/12/02 08:35:15;;;;;;;76.55;31.70;;;6.90;99.90;;;;;;5006752;28;20050;-86
2022/12/02 08:37:42;;;;;;;83.35;33.20;;;6.90;99.90;;;;;;5007679;28;20057;-88
2022/12/02 08:40:10;;;;;;;86.70;32.47;;;6.90;99.90;;;;;;4996420;28;20644;-89
2022/12/02 08:42:37;;;;;;;82.32;31.52;;;6.90;99.90;;;;;;5010682;28;20135;-87
2022/12/02 08:45:04;;;;;;;72.18;30.05;;;6.90;99.90;;;;;;5006497;28;20095;-87
2022/12/02 08:47:31;;;;;;;75.80;30.45;;;6.90;99.90;;;;;;5008317;28;20402;-88
2022/12/02 08:49:58;;;;;;;82.43;31.58;;;6.80;99.90;;;;;;5009003;28;20050;-86
2022/12/02 08:52:28;;;;;;;72.25;28.48;;;6.70;99.90;;;;;;5011907;28;20038;-85
2022/12/02 08:54:56;;;;;;;75.68;31.30;;;6.80;99.90;;;;;;5010597;28;20077;-85
2022/12/02 08:57:23;;;;;;;82.38;29.73;;;6.80;99.90;;;;;;5010817;28;20042;-85
2022/12/02 08:59:50;;;;;;;75.30;29.38;;;6.80;99.90;;;;;;5019736;28;20038;-84
2022/12/02 09:02:17;;;;;;;71.25;28.73;;;6.80;99.90;;;;;;4989218;28;20120;-85
2022/12/02 09:04:44;;;;;;;80.43;30.50;;;6.70;99.90;;;;;;5009890;28;20069;-86
2022/12/02 09:07:11;;;;;;;73.25;29.95;;;6.80;99.90;;;;;;5012236;28;20413;-88
2022/12/02 09:09:39;;;;;;;67.60;28.67;;;6.80;99.90;;;;;;5009135;28;20495;-89
2022/12/02 09:12:07;;;;;;;77.28;31.08;;;6.90;99.90;;;;;;5010988;28;20038;-90
2022/12/02 09:14:34;;;;;;;74.55;30.73;;;6.90;99.90;;;;;;5002961;28;20125;-89
2022/12/02 09:17:01;;;;;;;71.13;30.05;;;6.90;99.90;;;;;;4991900;28;20569;-89
2022/12/02 09:19:28;;;;;;;72.10;31.40;;;6.80;99.90;;;;;;4989601;28;20469;-91
2022/12/02 09:21:55;;;;;;;73.82;30.55;;;6.80;99.90;;;;;;5012276;28;20052;-89
2022/12/02 09:24:22;;;;;;;71.72;30.52;;;6.80;99.90;;;;;;5006232;28;20046;-91
2022/12/02 09:26:50;;;;;;;67.45;29.17;;;6.90;99.90;;;;;;5014901;28;20048;-90
2022/12/02 09:29:17;;;;;;;66.00;28.95;;;6.90;99.90;;;;;;5003491;28;20257;-90
2022/12/02 09:31:44;;;;;;;65.55;28.73;;;6.90;99.90;;;;;;5019618;28;20512;-91
2022/12/02 09:34:11;;;;;;;69.90;29.35;;;7.10;99.90;;;;;;5017783;28;20049;-91
2022/12/02 09:36:38;;;;;;;64.20;28.55;;;6.90;99.90;;;;;;5010863;28;20050;-91
2022/12/02 09:39:05;;;;;;;64.00;28.13;;;6.90;99.90;;;;;;4994330;28;20055;-91
2022/12/02 09:41:32;;;;;;;61.53;28.25;;;6.80;99.90;;;;;;4994521;28;20052;-91
2022/12/02 09:44:01;;;;;;;62.28;27.27;;;6.90;99.90;;;;;;5010068;28;20071;-91
2022/12/02 09:46:28;;;;;;;61.25;27.27;;;6.90;99.90;;;;;;5007350;28;20093;-91
2022/12/02 09:48:56;;;;;;;59.88;26.02;;;6.80;99.90;;;;;;5018691;28;20041;-90
2022/12/02 09:51:26;;;;;;;62.78;27.45;;;6.80;99.90;;;;;;5012073;28;20050;-89
2022/12/02 09:53:53;;;;;;;68.07;29.88;;;6.80;99.90;;;;;;5011500;28;20108;-91
2022/12/02 09:56:22;;;;;;;62.95;30.23;;;6.80;99.90;;;;;;5011609;28;20095;-89
2022/12/02 09:58:51;;;;;;;63.20;28.83;;;6.70;99.90;;;;;;5010828;28;20516;-90
2022/12/02 10:01:19;;;;;;;60.88;29.70;;;6.60;99.90;;;;;;5001607;28;20696;-89
2022/12/02 10:03:49;;;;;;;66.75;30.67;;;6.50;99.90;;;;;;5009871;28;20038;-90
2022/12/02 10:06:19;;;;;;;61.45;28.58;;;6.60;99.90;;;;;;5009816;28;20117;-90
2022/12/02 10:08:46;;;;;;;65.85;29.42;;;6.50;99.90;;;;;;5007094;28;20042;-91
2022/12/02 10:11:20;;;;;;;65.55;30.08;;;6.60;99.90;;;;;;5009304;28;20057;-91
2022/12/02 10:13:47;;;;;;;64.80;28.55;;;6.60;99.90;;;;;;5009926;28;20057;-90
2022/12/02 10:16:14;;;;;;;63.45;29.05;;;6.60;99.90;;;;;;5007938;28;20124;-90
2022/12/02 10:18:42;;;;;;;62.30;27.90;;;6.60;99.90;;;;;;5009139;28;20049;-91
2022/12/02 10:21:09;;;;;;;60.58;27.98;;;6.60;99.90;;;;;;5004970;28;20049;-90
2022/12/02 10:23:53;;;;;;;62.70;29.40;;;6.60;99.90;;;;;;5024804;28;20045;-92
2022/12/02 10:26:20;;;;;;;63.20;28.80;;;6.60;99.90;;;;;;5010160;28;20046;-91
2022/12/02 10:29:00;;;;;;;65.35;29.70;;;6.60;99.90;;;;;;4993112;28;20076;-90
2022/12/02 10:31:27;;;;;;;60.45;28.60;;;6.70;99.90;;;;;;4992807;28;20050;-90
2022/12/02 10:33:58;;;;;;;63.17;29.52;;;6.80;99.90;;;;;;4998067;28;20757;-91
2022/12/02 10:36:33;;;;;;;60.53;28.30;;;6.80;99.90;;;;;;4999101;28;20464;-90
2022/12/02 10:39:23;;;;;;;63.03;28.02;;;6.80;99.90;;;;;;5014113;28;20045;-90
2022/12/02 10:42:07;;;;;;;63.78;28.83;;;6.80;99.90;;;;;;5010845;28;20046;-91
2022/12/02 10:44:37;;;;;;;69.43;30.40;;;6.80;99.90;;;;;;5007927;28;20453;-90
2022/12/02 10:47:11;;;;;;;66.30;29.65;;;6.80;99.90;;;;;;4983057;28;20050;-90
2022/12/02 10:49:44;;;;;;;61.45;29.27;;;6.80;99.90;;;;;;5011574;28;20046;-90
2022/12/02 10:52:11;;;;;;;65.95;30.75;;;6.70;99.90;;;;;;5003102;28;20136;-90
2022/12/02 10:54:40;;;;;;;65.93;30.52;;;6.60;99.90;;;;;;5011298;28;20646;-89
2022/12/02 10:57:12;;;;;;;64.90;29.52;;;6.60;99.90;;;;;;5033949;28;20045;-91
2022/12/02 10:59:39;;;;;;;64.07;28.45;;;6.60;99.90;;;;;;5019348;28;20037;-90
2022/12/02 11:02:19;;;;;;;64.25;29.33;;;6.70;99.90;;;;;;5032289;28;20070;-90
2022/12/02 11:04:47;;;;;;;68.85;30.15;;;6.60;99.90;;;;;;5024524;28;20490;-92
2022/12/02 11:07:15;;;;;;;62.95;29.50;;;6.70;99.90;;;;;;5014317;28;20528;-89
2022/12/02 11:09:45;;;;;;;62.60;29.10;;;6.60;99.90;;;;;;5021337;28;20056;-90
2022/12/02 11:12:31;;;;;;;62.83;29.88;;;6.70;99.90;;;;;;5026223;28;20096;-89
2022/12/02 11:15:00;;;;;;;65.80;28.58;;;6.70;99.90;;;;;;5021417;28;20053;-91
2022/12/02 11:17:50;;;;;;;62.97;29.63;;;6.80;99.90;;;;;;5016165;28;20054;-90
2022/12/02 11:20:33;;;;;;;73.90;30.90;;;6.80;99.90;;;;;;5013677;28;20053;-90
2022/12/02 11:23:20;;;;;;;67.03;29.42;;;6.90;99.90;;;;;;4993690;28;20047;-90
2022/12/02 11:26:02;;;;;;;69.50;31.63;;;6.80;99.90;;;;;;4984272;28;20145;-91
2022/12/02 11:29:06;;;;;;;68.97;30.95;;;6.70;99.90;;;;;;5013513;28;20048;-90
2022/12/02 11:31:33;;;;;;;75.18;33.10;;;6.70;99.90;;;;;;4997922;28;20113;-90
2022/12/02 11:34:05;;;;;;;68.88;32.10;;;6.60;99.90;;;;;;5001330;28;20464;-88
2022/12/02 11:36:34;;;;;;;74.00;32.50;;;6.70;99.90;;;;;;5019847;28;20045;-90
2022/12/02 11:39:06;;;;;;;73.03;31.08;;;6.70;99.90;;;;;;5013334;28;20128;-90
2022/12/02 11:42:11;;;;;;;72.70;33.13;;;6.70;99.90;;;;;;5011700;28;20129;-89
2022/12/02 11:44:38;;;;;;;71.60;31.83;;;6.80;99.90;;;;;;5009901;28;20038;-90
2022/12/02 11:47:05;;;;;;;65.18;30.42;;;6.70;99.90;;;;;;5010219;28;20450;-90
2022/12/02 11:49:38;;;;;;;79.10;33.30;;;6.80;99.90;;;;;;4995684;28;20041;-90
2022/12/02 11:52:25;;;;;;;70.30;31.95;;;6.70;99.90;;;;;;5009460;28;20041;-90
2022/12/02 11:54:56;;;;;;;80.47;32.95;;;6.80;99.90;;;;;;5008623;28;20054;-90
2022/12/02 11:57:28;;;;;;;72.28;30.42;;;6.80;99.90;;;;;;5009669;28;20046;-90
2022/12/02 11:59:55;;;;;;;75.85;33.33;;;6.80;99.90;;;;;;5009909;28;20100;-90
2022/12/02 12:02:23;;;;;;;76.53;33.85;;;6.80;99.90;;;;;;5008662;28;20789;-90
2022/12/02 12:05:02;;;;;;;75.50;31.75;;;6.80;99.90;;;;;;4997090;28;20042;-91
2022/12/02 12:07:45;;;;;;;79.90;33.72;;;6.80;99.90;;;;;;4990701;28;20042;-90
2022/12/02 12:10:27;;;;;;;82.03;33.65;;;6.80;99.90;;;;;;4986899;28;20042;-90
2022/12/02 12:13:11;;;;;;;73.50;31.98;;;6.60;99.90;;;;;;5009111;28;20180;-91
2022/12/02 12:15:54;;;;;;;74.13;33.53;;;6.60;99.90;;;;;;4991346;28;20461;-90
2022/12/02 12:18:45;;;;;;;76.45;33.83;;;6.60;99.90;;;;;;5007410;28;20567;-90
2022/12/02 12:21:13;;;;;;;75.53;33.83;;;6.60;99.90;;;;;;5023477;28;20050;-88
2022/12/02 12:23:43;;;;;;;77.63;32.90;;;6.60;99.90;;;;;;4993056;28;20402;-86
2022/12/02 12:26:30;;;;;;;78.25;33.53;;;6.60;99.90;;;;;;5015982;28;20532;-87
2022/12/02 12:29:02;;;;;;;78.32;34.85;;;6.60;99.90;;;;;;4993873;28;20047;-88
2022/12/02 12:31:29;;;;;;;79.45;33.35;;;6.60;99.90;;;;;;5001616;28;20521;-87
2022/12/02 12:33:55;;;;;;;69.80;31.73;;;6.60;99.90;;;;;;5011704;28;20053;-86
2022/12/02 12:36:22;;;;;;;72.30;31.77;;;6.60;99.90;;;;;;5013241;28;20064;-87
2022/12/02 12:38:51;;;;;;;74.50;33.50;;;6.60;99.90;;;;;;4996041;28;20060;-87
2022/12/02 12:41:18;;;;;;;75.88;33.15;;;6.60;99.90;;;;;;4998588;28;20049;-87
2022/12/02 12:43:45;;;;;;;71.25;31.50;;;6.60;99.90;;;;;;5015790;28;20138;-87
2022/12/02 12:46:12;;;;;;;70.32;32.70;;;6.60;99.90;;;;;;5010085;28;20538;-88
2022/12/02 12:48:38;;;;;;;81.88;34.20;;;6.60;99.90;;;;;;5012969;28;20034;-86
2022/12/02 12:51:06;;;;;;;81.28;34.03;;;6.70;99.90;;;;;;5012671;28;20049;-87